sensor_id;sensor_type;location;lat;lon;timestamp;temperature;humidity
5222;DHT22;2630;52.036;8.514;2023-04-28T00:02:16;8.70;99.90
5222;DHT22;2630;52.036;8.514;2023-04-28T00:07:07;8.60;99.90
5222;DHT22;2630;52.036;8.514;2023-04-28T00:11:58;8.70;99.90
5222;DHT22;2630;52.036;8.514;2023-04-28T00:16:50;8.70;99.90
5222;DHT22;2630;52.036;8.514;2023-04-28T00:19:16;8.70;99.90
5222;DHT22;2630;52.036;8.514;2023-04-28T00:21:41;8.70;99.90
5222;DHT22;2630;52.036;8.514;2023-04-28T00:24:07;8.70;99.90
5222;DHT22;2630;52.036;8.514;2023-04-28T00:26:32;8.70;99.90
5222;DHT22;2630;52.036;8.514;2023-04-28T00:28:58;8.80;99.90
5222;DHT22;2630;52.036;8.514;2023-04-28T00:31:23;8.80;99.90
5222;DHT22;2630;52.036;8.514;2023-04-28T00:33:49;8.80;99.90
5222;DHT22;2630;52.036;8.514;2023-04-28T00:36:15;8.70;99.90
5222;DHT22;2630;52.036;8.514;2023-04-28T00:41:09;8.70;99.90
5222;DHT22;2630;52.036;8.514;2023-04-28T00:43:48;8.70;99.90
5222;DHT22;2630;52.036;8.514;2023-04-28T00:46:20;8.70;99.90
5222;DHT22;2630;52.036;8.514;2023-04-28T00:48:48;8.70;99.90
5222;DHT22;2630;52.036;8.514;2023-04-28T00:51:14;8.60;99.90
5222;DHT22;2630;52.036;8.514;2023-04-28T00:53:39;8.60;99.90
5222;DHT22;2630;52.036;8.514;2023-04-28T00:56:06;8.60;99.90
5222;DHT22;2630;52.036;8.514;2023-04-28T00:58:33;8.60;99.90
5222;DHT22;2630;52.036;8.514;2023-04-28T01:01:06;8.50;99.90
5222;DHT22;2630;52.036;8.514;2023-04-28T01:03:34;8.60;99.90
5222;DHT22;2630;52.036;8.514;2023-04-28T01:06:03;8.60;99.90
5222;DHT22;2630;52.036;8.514;2023-04-28T01:15:49;8.70;99.90
5222;DHT22;2630;52.036;8.514;2023-04-28T01:20:41;8.70;99.90
5222;DHT22;2630;52.036;8.514;2023-04-28T01:23:17;8.70;99.90
5222;DHT22;2630;52.036;8.514;2023-04-28T01:25:43;8.70;99.90
5222;DHT22;2630;52.036;8.514;2023-04-28T01:28:09;8.70;99.90
5222;DHT22;2630;52.036;8.514;2023-04-28T01:33:02;8.70;99.90
5222;DHT22;2630;52.036;8.514;2023-04-28T01:35:28;8.80;99.90
5222;DHT22;2630;52.036;8.514;2023-04-28T01:37:53;8.70;99.90
5222;DHT22;2630;52.036;8.514;2023-04-28T01:45:11;8.70;99.90
5222;DHT22;2630;52.036;8.514;2023-04-28T01:47:37;8.70;99.90
5222;DHT22;2630;52.036;8.514;2023-04-28T01:52:28;8.70;99.90
5222;DHT22;2630;52.036;8.514;2023-04-28T01:59:46;8.70;99.90
5222;DHT22;2630;52.036;8.514;2023-04-28T02:02:12;8.70;99.90
5222;DHT22;2630;52.036;8.514;2023-04-28T02:04:38;8.70;99.90
5222;DHT22;2630;52.036;8.514;2023-04-28T02:07:04;8.70;99.90
5222;DHT22;2630;52.036;8.514;2023-04-28T02:09:30;8.70;99.90
5222;DHT22;2630;52.036;8.514;2023-04-28T02:11:56;8.70;99.90
5222;DHT22;2630;52.036;8.514;2023-04-28T02:14:22;8.80;99.90
5222;DHT22;2630;52.036;8.514;2023-04-28T02:16:48;8.70;99.90
5222;DHT22;2630;52.036;8.514;2023-04-28T02:19:14;8.80;99.90
5222;DHT22;2630;52.036;8.514;2023-04-28T02:21:41;8.80;99.90
5222;DHT22;2630;52.036;8.514;2023-04-28T02:24:07;8.80;99.90
5222;DHT22;2630;52.036;8.514;2023-04-28T02:26:33;8.80;99.90
5222;DHT22;2630;52.036;8.514;2023-04-28T02:36:17;8.90;99.90
5222;DHT22;2630;52.036;8.514;2023-04-28T02:38:43;8.90;99.90
5222;DHT22;2630;52.036;8.514;2023-04-28T02:46:03;8.90;99.90
5222;DHT22;2630;52.036;8.514;2023-04-28T02:53:21;8.90;99.90
5222;DHT22;2630;52.036;8.514;2023-04-28T02:55:47;8.90;99.90
5222;DHT22;2630;52.036;8.514;2023-04-28T02:58:13;8.90;99.90
5222;DHT22;2630;52.036;8.514;2023-04-28T03:00:38;8.90;99.90
5222;DHT22;2630;52.036;8.514;2023-04-28T03:03:04;8.80;99.90
5222;DHT22;2630;52.036;8.514;2023-04-28T03:05:29;8.90;99.90
5222;DHT22;2630;52.036;8.514;2023-04-28T03:10:21;8.90;99.90
5222;DHT22;2630;52.036;8.514;2023-04-28T03:12:47;9.00;99.90
5222;DHT22;2630;52.036;8.514;2023-04-28T03:17:38;9.00;99.90
5222;DHT22;2630;52.036;8.514;2023-04-28T03:20:07;8.90;99.90
5222;DHT22;2630;52.036;8.514;2023-04-28T03:22:33;8.90;99.90
5222;DHT22;2630;52.036;8.514;2023-04-28T03:24:59;8.90;99.90
5222;DHT22;2630;52.036;8.514;2023-04-28T03:27:25;8.90;99.90
5222;DHT22;2630;52.036;8.514;2023-04-28T03:29:51;8.90;99.90
5222;DHT22;2630;52.036;8.514;2023-04-28T03:32:16;8.90;99.90
5222;DHT22;2630;52.036;8.514;2023-04-28T03:34:42;8.90;99.90
5222;DHT22;2630;52.036;8.514;2023-04-28T03:37:07;9.00;99.90
5222;DHT22;2630;52.036;8.514;2023-04-28T03:41:59;9.00;99.90
5222;DHT22;2630;52.036;8.514;2023-04-28T03:49:17;9.10;99.90
5222;DHT22;2630;52.036;8.514;2023-04-28T03:54:08;9.20;99.90
5222;DHT22;2630;52.036;8.514;2023-04-28T03:56:34;9.20;99.90
5222;DHT22;2630;52.036;8.514;2023-04-28T04:01:26;9.20;99.90
5222;DHT22;2630;52.036;8.514;2023-04-28T04:03:52;9.20;99.90
5222;DHT22;2630;52.036;8.514;2023-04-28T04:06:17;9.20;99.90
5222;DHT22;2630;52.036;8.514;2023-04-28T04:11:09;9.10;99.90
5222;DHT22;2630;52.036;8.514;2023-04-28T04:13:35;9.10;99.90
5222;DHT22;2630;52.036;8.514;2023-04-28T04:20:53;9.10;99.90
5222;DHT22;2630;52.036;8.514;2023-04-28T04:28:12;9.20;99.90
5222;DHT22;2630;52.036;8.514;2023-04-28T04:30:37;9.20;99.90
5222;DHT22;2630;52.036;8.514;2023-04-28T04:33:03;9.20;99.90
5222;DHT22;2630;52.036;8.514;2023-04-28T04:35:29;9.20;99.90
5222;DHT22;2630;52.036;8.514;2023-04-28T04:37:54;9.20;99.90
5222;DHT22;2630;52.036;8.514;2023-04-28T04:40:20;9.20;99.90
5222;DHT22;2630;52.036;8.514;2023-04-28T04:42:45;9.20;99.90
5222;DHT22;2630;52.036;8.514;2023-04-28T04:47:37;9.20;99.90
5222;DHT22;2630;52.036;8.514;2023-04-28T04:50:03;9.20;99.90
5222;DHT22;2630;52.036;8.514;2023-04-28T04:52:28;9.10;99.90
5222;DHT22;2630;52.036;8.514;2023-04-28T04:57:20;9.00;99.90
5222;DHT22;2630;52.036;8.514;2023-04-28T04:59:46;9.10;99.90
5222;DHT22;2630;52.036;8.514;2023-04-28T05:02:12;9.10;99.90
5222;DHT22;2630;52.036;8.514;2023-04-28T05:07:03;9.20;99.90
5222;DHT22;2630;52.036;8.514;2023-04-28T05:09:29;9.30;99.90
5222;DHT22;2630;52.036;8.514;2023-04-28T05:11:56;9.40;99.90
5222;DHT22;2630;52.036;8.514;2023-04-28T05:14:22;9.40;99.90
5222;DHT22;2630;52.036;8.514;2023-04-28T05:16:48;9.50;99.90
5222;DHT22;2630;52.036;8.514;2023-04-28T05:21:39;9.60;99.90
5222;DHT22;2630;52.036;8.514;2023-04-28T05:24:05;9.70;99.90
5222;DHT22;2630;52.036;8.514;2023-04-28T05:26:31;9.80;99.90
5222;DHT22;2630;52.036;8.514;2023-04-28T05:28:56;10.00;99.90
5222;DHT22;2630;52.036;8.514;2023-04-28T05:31:22;10.20;99.90
5222;DHT22;2630;52.036;8.514;2023-04-28T05:33:47;10.30;99.90
5222;DHT22;2630;52.036;8.514;2023-04-28T05:38:42;10.50;99.90
5222;DHT22;2630;52.036;8.514;2023-04-28T05:41:07;10.60;99.90
5222;DHT22;2630;52.036;8.514;2023-04-28T05:43:33;10.60;99.90
5222;DHT22;2630;52.036;8.514;2023-04-28T05:45:59;10.60;99.90
5222;DHT22;2630;52.036;8.514;2023-04-28T05:50:51;10.70;99.90
5222;DHT22;2630;52.036;8.514;2023-04-28T05:53:17;10.70;99.90
5222;DHT22;2630;52.036;8.514;2023-04-28T05:55:42;10.70;99.90
5222;DHT22;2630;52.036;8.514;2023-04-28T06:00:34;10.70;99.90
5222;DHT22;2630;52.036;8.514;2023-04-28T06:03:00;10.60;99.90
5222;DHT22;2630;52.036;8.514;2023-04-28T06:07:52;10.70;99.90
5222;DHT22;2630;52.036;8.514;2023-04-28T06:12:45;10.50;99.90
5222;DHT22;2630;52.036;8.514;2023-04-28T06:15:10;10.60;99.90
5222;DHT22;2630;52.036;8.514;2023-04-28T06:17:38;10.50;99.90
5222;DHT22;2630;52.036;8.514;2023-04-28T06:22:29;10.40;99.90
5222;DHT22;2630;52.036;8.514;2023-04-28T06:24:55;10.70;99.90
5222;DHT22;2630;52.036;8.514;2023-04-28T06:29:46;10.80;99.90
5222;DHT22;2630;52.036;8.514;2023-04-28T06:37:04;11.00;99.90
5222;DHT22;2630;52.036;8.514;2023-04-28T06:39:30;10.80;99.90
5222;DHT22;2630;52.036;8.514;2023-04-28T06:41:55;11.10;99.90
5222;DHT22;2630;52.036;8.514;2023-04-28T06:44:22;11.20;99.90
5222;DHT22;2630;52.036;8.514;2023-04-28T06:46:48;11.20;99.90
5222;DHT22;2630;52.036;8.514;2023-04-28T06:51:40;11.50;99.90
5222;DHT22;2630;52.036;8.514;2023-04-28T06:58:58;11.50;99.90
5222;DHT22;2630;52.036;8.514;2023-04-28T07:01:24;11.40;99.90
5222;DHT22;2630;52.036;8.514;2023-04-28T07:03:49;11.40;99.90
5222;DHT22;2630;52.036;8.514;2023-04-28T07:06:15;11.40;99.90
5222;DHT22;2630;52.036;8.514;2023-04-28T07:13:34;11.40;99.90
5222;DHT22;2630;52.036;8.514;2023-04-28T07:15:59;11.40;99.90
5222;DHT22;2630;52.036;8.514;2023-04-28T07:18:25;11.40;99.90
5222;DHT22;2630;52.036;8.514;2023-04-28T07:20:51;11.50;99.90
5222;DHT22;2630;52.036;8.514;2023-04-28T07:23:17;11.60;99.90
5222;DHT22;2630;52.036;8.514;2023-04-28T07:25:42;11.80;99.90
5222;DHT22;2630;52.036;8.514;2023-04-28T07:28:08;11.90;99.90
5222;DHT22;2630;52.036;8.514;2023-04-28T07:30:34;12.10;99.90
5222;DHT22;2630;52.036;8.514;2023-04-28T07:33:00;12.20;99.90
5222;DHT22;2630;52.036;8.514;2023-04-28T07:35:27;12.20;99.90
5222;DHT22;2630;52.036;8.514;2023-04-28T07:37:53;12.20;99.90
5222;DHT22;2630;52.036;8.514;2023-04-28T07:40:19;12.20;99.90
5222;DHT22;2630;52.036;8.514;2023-04-28T07:47:38;12.20;99.90
5222;DHT22;2630;52.036;8.514;2023-04-28T07:50:04;12.30;99.90
5222;DHT22;2630;52.036;8.514;2023-04-28T07:52:31;12.40;99.90
5222;DHT22;2630;52.036;8.514;2023-04-28T07:59:50;12.50;99.90
5222;DHT22;2630;52.036;8.514;2023-04-28T08:02:16;12.60;99.90
5222;DHT22;2630;52.036;8.514;2023-04-28T08:04:41;12.60;99.90
5222;DHT22;2630;52.036;8.514;2023-04-28T08:07:08;12.60;99.90
5222;DHT22;2630;52.036;8.514;2023-04-28T08:12:00;12.80;99.90
5222;DHT22;2630;52.036;8.514;2023-04-28T08:19:19;13.30;99.90
5222;DHT22;2630;52.036;8.514;2023-04-28T08:21:45;13.40;99.90
5222;DHT22;2630;52.036;8.514;2023-04-28T08:24:11;13.60;99.90
5222;DHT22;2630;52.036;8.514;2023-04-28T08:26:37;13.80;99.90
5222;DHT22;2630;52.036;8.514;2023-04-28T08:29:03;14.00;99.90
5222;DHT22;2630;52.036;8.514;2023-04-28T08:31:28;14.10;99.90
5222;DHT22;2630;52.036;8.514;2023-04-28T08:33:54;14.20;99.90
5222;DHT22;2630;52.036;8.514;2023-04-28T08:36:19;14.30;99.90
5222;DHT22;2630;52.036;8.514;2023-04-28T08:38:45;14.40;99.90
5222;DHT22;2630;52.036;8.514;2023-04-28T08:43:39;14.70;99.90
5222;DHT22;2630;52.036;8.514;2023-04-28T08:46:08;14.80;99.90
5222;DHT22;2630;52.036;8.514;2023-04-28T08:48:42;14.90;99.90
5222;DHT22;2630;52.036;8.514;2023-04-28T08:53:39;14.90;99.90
5222;DHT22;2630;52.036;8.514;2023-04-28T08:56:08;14.80;99.90
5222;DHT22;2630;52.036;8.514;2023-04-28T08:58:35;14.60;99.90
5222;DHT22;2630;52.036;8.514;2023-04-28T09:03:30;14.30;99.90
5222;DHT22;2630;52.036;8.514;2023-04-28T09:06:00;14.30;99.90
5222;DHT22;2630;52.036;8.514;2023-04-28T09:11:06;14.30;99.90
5222;DHT22;2630;52.036;8.514;2023-04-28T09:13:32;14.40;99.90
5222;DHT22;2630;52.036;8.514;2023-04-28T09:15:59;14.30;99.90
5222;DHT22;2630;52.036;8.514;2023-04-28T09:18:26;14.20;99.90
5222;DHT22;2630;52.036;8.514;2023-04-28T09:20:51;14.10;99.90
5222;DHT22;2630;52.036;8.514;2023-04-28T09:23:20;14.10;99.90
5222;DHT22;2630;52.036;8.514;2023-04-28T09:26:06;14.20;99.90
5222;DHT22;2630;52.036;8.514;2023-04-28T09:28:33;14.10;99.90
5222;DHT22;2630;52.036;8.514;2023-04-28T09:31:00;14.00;99.90
5222;DHT22;2630;52.036;8.514;2023-04-28T09:35:52;13.80;99.90
5222;DHT22;2630;52.036;8.514;2023-04-28T09:38:19;13.90;99.90
5222;DHT22;2630;52.036;8.514;2023-04-28T09:40:53;13.80;99.90
5222;DHT22;2630;52.036;8.514;2023-04-28T09:43:29;13.80;99.90
5222;DHT22;2630;52.036;8.514;2023-04-28T09:46:02;13.70;99.90
5222;DHT22;2630;52.036;8.514;2023-04-28T09:50:57;13.70;99.90
5222;DHT22;2630;52.036;8.514;2023-04-28T09:55:52;14.00;99.90
5222;DHT22;2630;52.036;8.514;2023-04-28T09:58:21;14.50;99.90
5222;DHT22;2630;52.036;8.514;2023-04-28T10:00:55;14.80;99.90
5222;DHT22;2630;52.036;8.514;2023-04-28T10:03:23;14.90;99.90
5222;DHT22;2630;52.036;8.514;2023-04-28T10:05:50;14.90;99.90
5222;DHT22;2630;52.036;8.514;2023-04-28T10:08:21;14.90;99.90
5222;DHT22;2630;52.036;8.514;2023-04-28T10:10:48;14.90;99.90
5222;DHT22;2630;52.036;8.514;2023-04-28T10:13:17;14.90;99.90
5222;DHT22;2630;52.036;8.514;2023-04-28T10:15:44;15.00;99.90
5222;DHT22;2630;52.036;8.514;2023-04-28T10:18:11;15.00;99.90
5222;DHT22;2630;52.036;8.514;2023-04-28T10:20:41;14.80;99.90
5222;DHT22;2630;52.036;8.514;2023-04-28T10:25:56;14.50;99.90
5222;DHT22;2630;52.036;8.514;2023-04-28T10:28:24;14.40;99.90
5222;DHT22;2630;52.036;8.514;2023-04-28T10:33:39;14.90;99.90
5222;DHT22;2630;52.036;8.514;2023-04-28T10:36:06;15.30;99.90
5222;DHT22;2630;52.036;8.514;2023-04-28T10:38:33;15.70;99.90
5222;DHT22;2630;52.036;8.514;2023-04-28T10:40:59;15.80;99.90
5222;DHT22;2630;52.036;8.514;2023-04-28T10:56:22;14.60;99.90
5222;DHT22;2630;52.036;8.514;2023-04-28T10:58:59;14.50;99.90
5222;DHT22;2630;52.036;8.514;2023-04-28T11:01:26;14.60;99.90
5222;DHT22;2630;52.036;8.514;2023-04-28T11:06:43;14.90;99.90
5222;DHT22;2630;52.036;8.514;2023-04-28T11:12:03;14.90;99.90
5222;DHT22;2630;52.036;8.514;2023-04-28T11:14:36;15.00;99.90
5222;DHT22;2630;52.036;8.514;2023-04-28T11:21:57;15.20;99.90
5222;DHT22;2630;52.036;8.514;2023-04-28T11:24:26;15.10;99.90
5222;DHT22;2630;52.036;8.514;2023-04-28T11:26:56;15.20;99.90
5222;DHT22;2630;52.036;8.514;2023-04-28T11:29:33;15.20;99.90
5222;DHT22;2630;52.036;8.514;2023-04-28T11:32:04;15.30;99.90
5222;DHT22;2630;52.036;8.514;2023-04-28T11:34:30;15.50;99.90
5222;DHT22;2630;52.036;8.514;2023-04-28T11:36:56;15.60;99.90
5222;DHT22;2630;52.036;8.514;2023-04-28T11:39:26;15.70;99.90
5222;DHT22;2630;52.036;8.514;2023-04-28T11:42:00;15.70;99.90
5222;DHT22;2630;52.036;8.514;2023-04-28T11:44:29;15.90;99.90
5222;DHT22;2630;52.036;8.514;2023-04-28T11:46:57;16.00;99.90
5222;DHT22;2630;52.036;8.514;2023-04-28T11:51:55;16.10;99.90
5222;DHT22;2630;52.036;8.514;2023-04-28T11:54:23;15.90;99.90
5222;DHT22;2630;52.036;8.514;2023-04-28T11:56:50;16.10;99.90
5222;DHT22;2630;52.036;8.514;2023-04-28T12:01:47;16.50;99.90
5222;DHT22;2630;52.036;8.514;2023-04-28T12:06:40;16.10;99.90
5222;DHT22;2630;52.036;8.514;2023-04-28T12:14:18;16.40;99.90
5222;DHT22;2630;52.036;8.514;2023-04-28T12:16:44;16.40;99.90
5222;DHT22;2630;52.036;8.514;2023-04-28T12:19:11;16.30;99.90
5222;DHT22;2630;52.036;8.514;2023-04-28T12:21:38;16.40;99.90
5222;DHT22;2630;52.036;8.514;2023-04-28T12:24:20;16.60;99.90
5222;DHT22;2630;52.036;8.514;2023-04-28T12:26:47;16.90;99.90
5222;DHT22;2630;52.036;8.514;2023-04-28T12:29:38;17.10;99.90
5222;DHT22;2630;52.036;8.514;2023-04-28T12:32:09;17.20;99.90
5222;DHT22;2630;52.036;8.514;2023-04-28T12:34:35;17.20;99.90
5222;DHT22;2630;52.036;8.514;2023-04-28T12:37:02;17.20;99.90
5222;DHT22;2630;52.036;8.514;2023-04-28T12:39:34;17.10;99.90
5222;DHT22;2630;52.036;8.514;2023-04-28T12:42:01;17.10;99.90
5222;DHT22;2630;52.036;8.514;2023-04-28T12:44:37;17.10;99.90
5222;DHT22;2630;52.036;8.514;2023-04-28T12:49:29;17.50;99.90
5222;DHT22;2630;52.036;8.514;2023-04-28T12:51:55;17.60;99.90
5222;DHT22;2630;52.036;8.514;2023-04-28T12:54:20;17.70;99.90
5222;DHT22;2630;52.036;8.514;2023-04-28T12:56:46;17.60;99.90
5222;DHT22;2630;52.036;8.514;2023-04-28T12:59:12;17.30;99.90
5222;DHT22;2630;52.036;8.514;2023-04-28T13:01:37;17.20;99.90
5222;DHT22;2630;52.036;8.514;2023-04-28T13:04:03;17.20;99.90
5222;DHT22;2630;52.036;8.514;2023-04-28T13:06:29;17.10;99.90
5222;DHT22;2630;52.036;8.514;2023-04-28T13:08:55;17.20;99.90
5222;DHT22;2630;52.036;8.514;2023-04-28T13:11:21;17.30;99.90
5222;DHT22;2630;52.036;8.514;2023-04-28T13:13:47;17.50;99.90
5222;DHT22;2630;52.036;8.514;2023-04-28T13:18:39;17.30;99.90
5222;DHT22;2630;52.036;8.514;2023-04-28T13:21:04;17.20;99.90
5222;DHT22;2630;52.036;8.514;2023-04-28T13:23:30;17.10;99.90
5222;DHT22;2630;52.036;8.514;2023-04-28T13:25:55;17.00;99.90
5222;DHT22;2630;52.036;8.514;2023-04-28T13:28:21;16.90;99.90
5222;DHT22;2630;52.036;8.514;2023-04-28T13:30:47;16.90;99.90
5222;DHT22;2630;52.036;8.514;2023-04-28T13:33:12;17.00;99.90
5222;DHT22;2630;52.036;8.514;2023-04-28T13:35:38;17.00;99.90
5222;DHT22;2630;52.036;8.514;2023-04-28T13:38:03;17.00;99.90
5222;DHT22;2630;52.036;8.514;2023-04-28T13:40:29;17.00;99.90
5222;DHT22;2630;52.036;8.514;2023-04-28T13:42:55;17.00;99.90
5222;DHT22;2630;52.036;8.514;2023-04-28T13:45:21;17.00;99.90
5222;DHT22;2630;52.036;8.514;2023-04-28T13:47:47;17.00;99.90
5222;DHT22;2630;52.036;8.514;2023-04-28T13:50:13;16.90;99.90
5222;DHT22;2630;52.036;8.514;2023-04-28T13:52:39;16.90;99.90
5222;DHT22;2630;52.036;8.514;2023-04-28T13:55:05;16.70;99.90
5222;DHT22;2630;52.036;8.514;2023-04-28T13:57:30;16.60;99.90
5222;DHT22;2630;52.036;8.514;2023-04-28T13:59:56;16.50;99.90
5222;DHT22;2630;52.036;8.514;2023-04-28T14:02:22;16.40;99.90
5222;DHT22;2630;52.036;8.514;2023-04-28T14:04:47;16.30;99.90
5222;DHT22;2630;52.036;8.514;2023-04-28T14:07:15;16.30;99.90
5222;DHT22;2630;52.036;8.514;2023-04-28T14:09:41;16.30;99.90
5222;DHT22;2630;52.036;8.514;2023-04-28T14:12:07;16.20;99.90
5222;DHT22;2630;52.036;8.514;2023-04-28T14:14:33;16.10;99.90
5222;DHT22;2630;52.036;8.514;2023-04-28T14:16:58;16.00;99.90
5222;DHT22;2630;52.036;8.514;2023-04-28T14:21:51;15.90;99.90
5222;DHT22;2630;52.036;8.514;2023-04-28T14:24:17;15.90;99.90
5222;DHT22;2630;52.036;8.514;2023-04-28T14:26:44;16.00;99.90
5222;DHT22;2630;52.036;8.514;2023-04-28T14:29:10;15.90;99.90
5222;DHT22;2630;52.036;8.514;2023-04-28T14:31:36;15.80;99.90
5222;DHT22;2630;52.036;8.514;2023-04-28T14:34:02;15.70;99.90
5222;DHT22;2630;52.036;8.514;2023-04-28T14:38:56;15.60;99.90
5222;DHT22;2630;52.036;8.514;2023-04-28T14:41:21;15.50;99.90
5222;DHT22;2630;52.036;8.514;2023-04-28T14:46:13;15.30;99.90
5222;DHT22;2630;52.036;8.514;2023-04-28T14:48:39;15.20;99.90
5222;DHT22;2630;52.036;8.514;2023-04-28T14:53:30;15.20;99.90
5222;DHT22;2630;52.036;8.514;2023-04-28T14:55:56;15.40;99.90
5222;DHT22;2630;52.036;8.514;2023-04-28T14:58:23;15.40;99.90
5222;DHT22;2630;52.036;8.514;2023-04-28T15:00:49;15.30;99.90
5222;DHT22;2630;52.036;8.514;2023-04-28T15:03:15;15.40;99.90
5222;DHT22;2630;52.036;8.514;2023-04-28T15:05:40;15.30;99.90
5222;DHT22;2630;52.036;8.514;2023-04-28T15:08:06;15.30;99.90
5222;DHT22;2630;52.036;8.514;2023-04-28T15:10:38;15.30;99.90
5222;DHT22;2630;52.036;8.514;2023-04-28T15:13:04;15.30;99.90
5222;DHT22;2630;52.036;8.514;2023-04-28T15:15:30;15.20;99.90
5222;DHT22;2630;52.036;8.514;2023-04-28T15:17:56;15.00;99.90
5222;DHT22;2630;52.036;8.514;2023-04-28T15:20:26;14.90;99.90
5222;DHT22;2630;52.036;8.514;2023-04-28T15:22:52;14.90;99.90
5222;DHT22;2630;52.036;8.514;2023-04-28T15:25:17;14.80;99.90
5222;DHT22;2630;52.036;8.514;2023-04-28T15:27:43;14.90;99.90
5222;DHT22;2630;52.036;8.514;2023-04-28T15:30:09;14.90;99.90
5222;DHT22;2630;52.036;8.514;2023-04-28T15:32:35;15.00;99.90
5222;DHT22;2630;52.036;8.514;2023-04-28T15:35:00;15.30;99.90
5222;DHT22;2630;52.036;8.514;2023-04-28T15:37:42;15.50;99.90
5222;DHT22;2630;52.036;8.514;2023-04-28T15:40:10;15.70;99.90
5222;DHT22;2630;52.036;8.514;2023-04-28T15:45:04;16.00;99.90
5222;DHT22;2630;52.036;8.514;2023-04-28T15:47:30;16.20;99.90
5222;DHT22;2630;52.036;8.514;2023-04-28T15:49:57;16.40;99.90
5222;DHT22;2630;52.036;8.514;2023-04-28T15:54:53;16.70;99.90
5222;DHT22;2630;52.036;8.514;2023-04-28T16:04:37;16.30;99.90
5222;DHT22;2630;52.036;8.514;2023-04-28T16:53:23;16.10;99.90
5222;DHT22;2630;52.036;8.514;2023-04-28T16:55:49;16.20;99.90
5222;DHT22;2630;52.036;8.514;2023-04-28T17:03:06;16.10;99.90
5222;DHT22;2630;52.036;8.514;2023-04-28T17:05:32;16.00;99.90
5222;DHT22;2630;52.036;8.514;2023-04-28T17:10:24;15.70;99.90
5222;DHT22;2630;52.036;8.514;2023-04-28T17:12:50;15.60;99.90
5222;DHT22;2630;52.036;8.514;2023-04-28T17:15:16;15.50;99.90
5222;DHT22;2630;52.036;8.514;2023-04-28T17:17:45;15.50;99.90
5222;DHT22;2630;52.036;8.514;2023-04-28T17:20:11;15.40;99.90
5222;DHT22;2630;52.036;8.514;2023-04-28T17:22:41;15.50;99.90
5222;DHT22;2630;52.036;8.514;2023-04-28T17:27:33;15.40;99.90
5222;DHT22;2630;52.036;8.514;2023-04-28T17:29:58;15.30;99.90
5222;DHT22;2630;52.036;8.514;2023-04-28T17:32:24;15.10;99.90
5222;DHT22;2630;52.036;8.514;2023-04-28T17:34:49;15.00;99.90
5222;DHT22;2630;52.036;8.514;2023-04-28T17:39:41;14.80;99.90
5222;DHT22;2630;52.036;8.514;2023-04-28T17:42:07;14.80;99.90
5222;DHT22;2630;52.036;8.514;2023-04-28T17:44:32;14.70;99.90
5222;DHT22;2630;52.036;8.514;2023-04-28T17:56:43;14.30;99.90
5222;DHT22;2630;52.036;8.514;2023-04-28T18:04:01;14.10;99.90
5222;DHT22;2630;52.036;8.514;2023-04-28T18:06:27;14.00;99.90
5222;DHT22;2630;52.036;8.514;2023-04-28T18:08:53;13.90;99.90
5222;DHT22;2630;52.036;8.514;2023-04-28T18:28:28;13.50;99.90
5222;DHT22;2630;52.036;8.514;2023-04-28T18:30:53;13.50;99.90
5222;DHT22;2630;52.036;8.514;2023-04-28T18:35:46;13.40;99.90
5222;DHT22;2630;52.036;8.514;2023-04-28T18:43:06;13.30;99.90
5222;DHT22;2630;52.036;8.514;2023-04-28T18:50:31;13.40;99.90
5222;DHT22;2630;52.036;8.514;2023-04-28T18:53:00;13.40;99.90
5222;DHT22;2630;52.036;8.514;2023-04-28T18:55:26;13.40;99.90
5222;DHT22;2630;52.036;8.514;2023-04-28T19:02:45;13.40;99.90
5222;DHT22;2630;52.036;8.514;2023-04-28T19:10:04;13.40;99.90
5222;DHT22;2630;52.036;8.514;2023-04-28T19:12:30;13.40;99.90
5222;DHT22;2630;52.036;8.514;2023-04-28T19:17:22;13.40;99.90
5222;DHT22;2630;52.036;8.514;2023-04-28T19:19:49;13.50;99.90
5222;DHT22;2630;52.036;8.514;2023-04-28T19:22:50;13.50;99.90
5222;DHT22;2630;52.036;8.514;2023-04-28T19:25:16;13.50;99.90
5222;DHT22;2630;52.036;8.514;2023-04-28T19:27:43;13.60;99.90
5222;DHT22;2630;52.036;8.514;2023-04-28T19:39:55;13.50;99.90
5222;DHT22;2630;52.036;8.514;2023-04-28T19:42:20;13.40;99.90
5222;DHT22;2630;52.036;8.514;2023-04-28T19:47:21;13.40;99.90
5222;DHT22;2630;52.036;8.514;2023-04-28T19:49:47;13.40;99.90
5222;DHT22;2630;52.036;8.514;2023-04-28T19:52:13;13.40;99.90
5222;DHT22;2630;52.036;8.514;2023-04-28T19:57:04;13.40;99.90
5222;DHT22;2630;52.036;8.514;2023-04-28T20:01:56;13.40;99.90
5222;DHT22;2630;52.036;8.514;2023-04-28T20:04:21;13.30;99.90
5222;DHT22;2630;52.036;8.514;2023-04-28T20:21:25;13.20;99.90
5222;DHT22;2630;52.036;8.514;2023-04-28T20:23:51;13.30;99.90
5222;DHT22;2630;52.036;8.514;2023-04-28T20:26:17;13.30;99.90
5222;DHT22;2630;52.036;8.514;2023-04-28T20:28:44;13.30;99.90
5222;DHT22;2630;52.036;8.514;2023-04-28T20:43:23;13.20;99.90
5222;DHT22;2630;52.036;8.514;2023-04-28T20:50:41;13.30;99.90
5222;DHT22;2630;52.036;8.514;2023-04-28T20:53:09;13.30;99.90
5222;DHT22;2630;52.036;8.514;2023-04-28T20:55:34;13.20;99.90
5222;DHT22;2630;52.036;8.514;2023-04-28T21:00:26;13.20;99.90
5222;DHT22;2630;52.036;8.514;2023-04-28T21:02:52;13.20;99.90
5222;DHT22;2630;52.036;8.514;2023-04-28T21:05:17;13.10;99.90
5222;DHT22;2630;52.036;8.514;2023-04-28T21:15:04;13.10;99.90
5222;DHT22;2630;52.036;8.514;2023-04-28T21:19:56;13.10;99.90
5222;DHT22;2630;52.036;8.514;2023-04-28T21:22:22;13.00;99.90
5222;DHT22;2630;52.036;8.514;2023-04-28T21:24:49;13.00;99.90
5222;DHT22;2630;52.036;8.514;2023-04-28T21:27:15;13.00;99.90
5222;DHT22;2630;52.036;8.514;2023-04-28T21:32:06;13.10;99.90
5222;DHT22;2630;52.036;8.514;2023-04-28T21:34:32;13.10;99.90
5222;DHT22;2630;52.036;8.514;2023-04-28T21:39:25;13.00;99.90
5222;DHT22;2630;52.036;8.514;2023-04-28T21:44:17;13.20;99.90
5222;DHT22;2630;52.036;8.514;2023-04-28T21:46:43;13.00;99.90
5222;DHT22;2630;52.036;8.514;2023-04-28T21:49:09;13.00;99.90
5222;DHT22;2630;52.036;8.514;2023-04-28T21:51:34;13.00;99.90
5222;DHT22;2630;52.036;8.514;2023-04-28T21:54:01;13.00;99.90
5222;DHT22;2630;52.036;8.514;2023-04-28T22:01:23;13.00;99.90
5222;DHT22;2630;52.036;8.514;2023-04-28T22:06:19;13.10;99.90
5222;DHT22;2630;52.036;8.514;2023-04-28T22:11:11;13.10;99.90
5222;DHT22;2630;52.036;8.514;2023-04-28T22:16:03;13.10;99.90
5222;DHT22;2630;52.036;8.514;2023-04-28T22:18:32;13.10;99.90
5222;DHT22;2630;52.036;8.514;2023-04-28T22:30:44;13.00;99.90
5222;DHT22;2630;52.036;8.514;2023-04-28T22:45:21;12.90;99.90
5222;DHT22;2630;52.036;8.514;2023-04-28T22:50:12;12.80;99.90
5222;DHT22;2630;52.036;8.514;2023-04-28T22:52:38;12.80;99.90
5222;DHT22;2630;52.036;8.514;2023-04-28T22:55:04;12.70;99.90
5222;DHT22;2630;52.036;8.514;2023-04-28T22:57:30;12.70;99.90
5222;DHT22;2630;52.036;8.514;2023-04-28T22:59:56;12.60;99.90
5222;DHT22;2630;52.036;8.514;2023-04-28T23:02:21;12.60;99.90
5222;DHT22;2630;52.036;8.514;2023-04-28T23:04:48;12.50;99.90
5222;DHT22;2630;52.036;8.514;2023-04-28T23:12:05;12.30;99.90
5222;DHT22;2630;52.036;8.514;2023-04-28T23:14:31;12.30;99.90
5222;DHT22;2630;52.036;8.514;2023-04-28T23:16:57;12.20;99.90
5222;DHT22;2630;52.036;8.514;2023-04-28T23:21:49;12.20;99.90
5222;DHT22;2630;52.036;8.514;2023-04-28T23:24:15;12.20;99.90
5222;DHT22;2630;52.036;8.514;2023-04-28T23:26:40;12.20;99.90
5222;DHT22;2630;52.036;8.514;2023-04-28T23:29:06;12.20;99.90
5222;DHT22;2630;52.036;8.514;2023-04-28T23:31:33;12.10;99.90
5222;DHT22;2630;52.036;8.514;2023-04-28T23:34:04;12.10;99.90
5222;DHT22;2630;52.036;8.514;2023-04-28T23:41:22;12.20;99.90